Tyndall, SD (57066)

8:13 PM CDT on March 31, 2015 (GMT -0500)
Tabor - Bares | | Change Station
CLOSE
Current Station
Personal Weather Station
Location: Tabor, SD
Elevation: 1355 ft
Nearby Weather Stations
Active Advisory: Fire Weather Warning

Elev 1355 ft 42.95 °N, 97.66 °W | Updated 6 seconds ago

Clear
Clear
68.5 °F
Feels Like 68.5 °F
N
10.1
Wind Variable Wind from SE
Gusts 12.0 mph

Today
High -- | Low -- °F
--% Chance of Precip.
Yesterday
High -- | Low -- °F
Precip. -- in
7:15 AM 7:56 PM
Waxing Gibbous, 90% visible
Pressure 29.79 in
Visibility 10.0 miles
Clouds Clear
Dew Point 34 °F
Humidity 28%
Rainfall 0.00 in
Snow Depth Not available.
UV 0 out of 12
Pollen 6.20 out of 12
Air Quality Not available.
Flu Activity Not available.
METAR KYKN 010055Z AUTO 16007KT 10SM CLR 22/M01 A2979 RMK AO1

More Conditions Fewer Conditions

Pressure 29.79 in
Visibility 10.0 miles
Clouds Clear
Dew Point 34 °F
Humidity 28%
Rainfall 0.00 in
Snow Depth Not available.
UV 0 out of 12
Pollen 6.20 out of 12
Air Quality Not available.
Flu Activity Not available.
METAR KYKN 010055Z AUTO 16007KT 10SM CLR 22/M01 A2979 RMK AO1

More Conditions Fewer Conditions

10-Day Weather Forecast

Almanac

Astronomy

Mar. 31, 2015 Rise Set
Actual Time
Civil Twilight
Nautical Twilight
Astronomical Twilight
Moon
Length of Visible Light
Length of Day
Tomorrow will be .
, % of the Moon is Illuminated

Today's Extremes

State Highs State Lows

Community

WunderPhotos

Upload Photos

1,809,896 photos uploaded!

WunderBlogs® & News

Nearby

Air Quality

  Air Quality AQ Index Pollutant
Not available.

Snow Depth

Station Depth Elevation

Earthquake Activity

City Distance Mag. Time & Date
Minimum magnitude displayed is 2.5.

Coastal Water Temperatures

Place Temperature

Stations

Nearby Weather Stations

Station Location Temp. Windchill Dew Point Humidity Wind Precip. Elev Updated Type
                   
Fire Weather Warning
Statement as of 2:21 PM CDT on March 31, 2015

... Red flag warning in effect from 1 PM to 8 PM CDT Wednesday for
for fire weather zones 255 and 256...

The National Weather Service in Sioux Falls has issued a red flag
warning... which is in effect from 1 PM to 8 PM CDT Wednesday for
strong winds and low humidity. The Fire Weather Watch is no longer
in effect.

* Affected area... fire weather zone 255. Fire weather zone 256.

* Wind... northwest at 20 to 35 mph by afternoon.

* Humidity... as low as 18 to 22 percent.

* Impacts... any fires that develop will likely spread rapidly.
Outdoor burning is not recommended.


Precautionary/preparedness actions...

A red flag warning means that critical fire weather conditions
are either occurring now... or will shortly. A combination of
strong winds... low relative humidity... and warm temperatures can
contribute to extreme fire behavior.